sensor_id;sensor_type;location;lat;lon;timestamp;P1;durP1;ratioP1;P2;durP2;ratioP2
23266;SDS011;11802;53.160;8.214;2023-05-19T00:02:13;15.83;;;8.00;;
23266;SDS011;11802;53.160;8.214;2023-05-19T00:04:40;21.47;;;8.33;;
23266;SDS011;11802;53.160;8.214;2023-05-19T00:07:05;15.30;;;7.90;;
23266;SDS011;11802;53.160;8.214;2023-05-19T00:09:35;12.83;;;7.50;;
23266;SDS011;11802;53.160;8.214;2023-05-19T00:12:01;16.40;;;8.50;;
23266;SDS011;11802;53.160;8.214;2023-05-19T00:14:27;16.20;;;8.40;;
23266;SDS011;11802;53.160;8.214;2023-05-19T00:16:53;14.33;;;8.30;;
23266;SDS011;11802;53.160;8.214;2023-05-19T00:19:20;15.70;;;8.37;;
23266;SDS011;11802;53.160;8.214;2023-05-19T00:21:45;18.77;;;8.73;;
23266;SDS011;11802;53.160;8.214;2023-05-19T00:24:11;13.40;;;7.57;;
23266;SDS011;11802;53.160;8.214;2023-05-19T00:26:37;18.13;;;9.00;;
23266;SDS011;11802;53.160;8.214;2023-05-19T00:29:02;16.37;;;8.27;;
23266;SDS011;11802;53.160;8.214;2023-05-19T00:31:28;17.03;;;8.03;;
23266;SDS011;11802;53.160;8.214;2023-05-19T00:33:55;15.63;;;7.90;;
23266;SDS011;11802;53.160;8.214;2023-05-19T00:36:21;17.17;;;8.53;;
23266;SDS011;11802;53.160;8.214;2023-05-19T00:38:46;15.13;;;7.93;;
23266;SDS011;11802;53.160;8.214;2023-05-19T00:41:12;17.57;;;8.97;;
23266;SDS011;11802;53.160;8.214;2023-05-19T00:43:37;16.80;;;9.17;;
23266;SDS011;11802;53.160;8.214;2023-05-19T00:46:03;18.97;;;9.23;;
23266;SDS011;11802;53.160;8.214;2023-05-19T00:48:29;17.67;;;8.27;;
23266;SDS011;11802;53.160;8.214;2023-05-19T00:50:55;15.77;;;8.57;;
23266;SDS011;11802;53.160;8.214;2023-05-19T00:53:26;16.90;;;9.30;;
23266;SDS011;11802;53.160;8.214;2023-05-19T00:55:52;15.63;;;8.90;;
23266;SDS011;11802;53.160;8.214;2023-05-19T00:58:18;14.90;;;7.90;;
23266;SDS011;11802;53.160;8.214;2023-05-19T01:00:43;18.27;;;8.90;;
23266;SDS011;11802;53.160;8.214;2023-05-19T01:03:09;15.47;;;7.97;;
23266;SDS011;11802;53.160;8.214;2023-05-19T01:05:41;17.93;;;8.87;;
23266;SDS011;11802;53.160;8.214;2023-05-19T01:08:10;14.43;;;8.30;;
23266;SDS011;11802;53.160;8.214;2023-05-19T01:10:36;13.87;;;7.90;;
23266;SDS011;11802;53.160;8.214;2023-05-19T01:13:02;15.93;;;8.50;;
23266;SDS011;11802;53.160;8.214;2023-05-19T01:15:28;17.70;;;8.43;;
23266;SDS011;11802;53.160;8.214;2023-05-19T01:18:02;13.33;;;8.40;;
23266;SDS011;11802;53.160;8.214;2023-05-19T01:20:37;17.87;;;7.97;;
23266;SDS011;11802;53.160;8.214;2023-05-19T01:31:39;17.00;;;8.80;;
23266;SDS011;11802;53.160;8.214;2023-05-19T01:34:08;14.30;;;8.60;;
23266;SDS011;11802;53.160;8.214;2023-05-19T01:36:36;14.80;;;8.10;;
23266;SDS011;11802;53.160;8.214;2023-05-19T01:39:02;17.93;;;8.70;;
23266;SDS011;11802;53.160;8.214;2023-05-19T01:41:28;18.97;;;9.90;;
23266;SDS011;11802;53.160;8.214;2023-05-19T01:43:56;14.93;;;8.70;;
23266;SDS011;11802;53.160;8.214;2023-05-19T01:46:22;16.97;;;8.93;;
23266;SDS011;11802;53.160;8.214;2023-05-19T01:48:49;21.23;;;9.13;;
23266;SDS011;11802;53.160;8.214;2023-05-19T01:51:16;17.90;;;9.00;;
23266;SDS011;11802;53.160;8.214;2023-05-19T01:53:41;16.73;;;8.73;;
23266;SDS011;11802;53.160;8.214;2023-05-19T01:56:07;15.27;;;8.30;;
23266;SDS011;11802;53.160;8.214;2023-05-19T02:09:40;16.80;;;9.10;;
23266;SDS011;11802;53.160;8.214;2023-05-19T02:12:44;18.13;;;9.00;;
23266;SDS011;11802;53.160;8.214;2023-05-19T02:15:15;17.77;;;9.37;;
23266;SDS011;11802;53.160;8.214;2023-05-19T02:17:43;17.83;;;9.47;;
23266;SDS011;11802;53.160;8.214;2023-05-19T02:20:14;15.27;;;8.70;;
23266;SDS011;11802;53.160;8.214;2023-05-19T02:22:40;18.40;;;9.47;;
23266;SDS011;11802;53.160;8.214;2023-05-19T02:25:07;14.57;;;8.80;;
23266;SDS011;11802;53.160;8.214;2023-05-19T02:27:33;15.60;;;9.43;;
23266;SDS011;11802;53.160;8.214;2023-05-19T02:30:00;18.10;;;9.30;;
23266;SDS011;11802;53.160;8.214;2023-05-19T02:32:26;22.20;;;8.63;;
23266;SDS011;11802;53.160;8.214;2023-05-19T02:34:51;18.80;;;8.87;;
23266;SDS011;11802;53.160;8.214;2023-05-19T02:37:17;16.10;;;8.63;;
23266;SDS011;11802;53.160;8.214;2023-05-19T02:39:43;15.50;;;8.53;;
23266;SDS011;11802;53.160;8.214;2023-05-19T02:42:09;15.37;;;8.60;;
23266;SDS011;11802;53.160;8.214;2023-05-19T02:44:35;19.10;;;8.83;;
23266;SDS011;11802;53.160;8.214;2023-05-19T02:47:01;14.80;;;8.60;;
23266;SDS011;11802;53.160;8.214;2023-05-19T02:49:27;15.63;;;9.57;;
23266;SDS011;11802;53.160;8.214;2023-05-19T02:51:55;16.07;;;8.50;;
23266;SDS011;11802;53.160;8.214;2023-05-19T02:54:21;17.03;;;8.60;;
23266;SDS011;11802;53.160;8.214;2023-05-19T02:56:46;16.53;;;8.53;;
23266;SDS011;11802;53.160;8.214;2023-05-19T02:59:12;16.30;;;9.00;;
23266;SDS011;11802;53.160;8.214;2023-05-19T03:01:38;15.07;;;8.83;;
23266;SDS011;11802;53.160;8.214;2023-05-19T03:04:04;18.07;;;9.30;;
23266;SDS011;11802;53.160;8.214;2023-05-19T03:06:29;19.80;;;9.50;;
23266;SDS011;11802;53.160;8.214;2023-05-19T03:08:56;20.10;;;9.30;;
23266;SDS011;11802;53.160;8.214;2023-05-19T03:11:22;16.07;;;8.93;;
23266;SDS011;11802;53.160;8.214;2023-05-19T03:13:47;18.83;;;9.37;;
23266;SDS011;11802;53.160;8.214;2023-05-19T03:16:13;17.67;;;8.90;;
23266;SDS011;11802;53.160;8.214;2023-05-19T03:18:40;17.97;;;10.10;;
23266;SDS011;11802;53.160;8.214;2023-05-19T03:21:05;19.27;;;9.67;;
23266;SDS011;11802;53.160;8.214;2023-05-19T03:23:31;16.83;;;9.83;;
23266;SDS011;11802;53.160;8.214;2023-05-19T03:25:56;16.30;;;9.30;;
23266;SDS011;11802;53.160;8.214;2023-05-19T03:28:22;17.97;;;9.27;;
23266;SDS011;11802;53.160;8.214;2023-05-19T03:30:48;17.33;;;8.70;;
23266;SDS011;11802;53.160;8.214;2023-05-19T03:33:16;16.57;;;9.13;;
23266;SDS011;11802;53.160;8.214;2023-05-19T03:35:42;17.37;;;9.10;;
23266;SDS011;11802;53.160;8.214;2023-05-19T03:38:08;19.00;;;10.10;;
23266;SDS011;11802;53.160;8.214;2023-05-19T03:40:34;16.83;;;9.63;;
23266;SDS011;11802;53.160;8.214;2023-05-19T03:42:59;15.30;;;8.93;;
23266;SDS011;11802;53.160;8.214;2023-05-19T03:45:25;19.00;;;10.37;;
23266;SDS011;11802;53.160;8.214;2023-05-19T03:47:51;19.10;;;9.37;;
23266;SDS011;11802;53.160;8.214;2023-05-19T03:50:17;17.63;;;10.33;;
23266;SDS011;11802;53.160;8.214;2023-05-19T03:52:42;17.63;;;9.77;;
23266;SDS011;11802;53.160;8.214;2023-05-19T03:55:12;21.27;;;10.93;;
23266;SDS011;11802;53.160;8.214;2023-05-19T03:57:38;18.80;;;9.90;;
23266;SDS011;11802;53.160;8.214;2023-05-19T04:00:05;12.97;;;7.83;;
23266;SDS011;11802;53.160;8.214;2023-05-19T04:02:31;14.60;;;9.07;;
23266;SDS011;11802;53.160;8.214;2023-05-19T04:04:57;13.00;;;9.13;;
23266;SDS011;11802;53.160;8.214;2023-05-19T04:07:22;14.30;;;8.87;;
23266;SDS011;11802;53.160;8.214;2023-05-19T04:09:48;16.73;;;8.50;;
23266;SDS011;11802;53.160;8.214;2023-05-19T04:12:14;12.53;;;8.10;;
23266;SDS011;11802;53.160;8.214;2023-05-19T04:14:39;16.33;;;9.03;;
23266;SDS011;11802;53.160;8.214;2023-05-19T04:17:05;16.20;;;8.00;;
23266;SDS011;11802;53.160;8.214;2023-05-19T04:19:30;16.00;;;8.53;;
23266;SDS011;11802;53.160;8.214;2023-05-19T04:21:56;13.43;;;8.17;;
23266;SDS011;11802;53.160;8.214;2023-05-19T04:24:21;13.73;;;8.37;;
23266;SDS011;11802;53.160;8.214;2023-05-19T04:26:47;15.13;;;7.90;;
23266;SDS011;11802;53.160;8.214;2023-05-19T04:29:13;17.83;;;8.97;;
23266;SDS011;11802;53.160;8.214;2023-05-19T04:31:41;13.53;;;7.30;;
23266;SDS011;11802;53.160;8.214;2023-05-19T04:34:10;12.83;;;8.03;;
23266;SDS011;11802;53.160;8.214;2023-05-19T04:36:36;12.93;;;8.13;;
23266;SDS011;11802;53.160;8.214;2023-05-19T04:39:01;13.27;;;8.03;;
23266;SDS011;11802;53.160;8.214;2023-05-19T04:41:31;14.10;;;7.70;;
23266;SDS011;11802;53.160;8.214;2023-05-19T04:43:57;12.43;;;7.17;;
23266;SDS011;11802;53.160;8.214;2023-05-19T04:46:23;13.10;;;7.17;;
23266;SDS011;11802;53.160;8.214;2023-05-19T04:48:50;11.50;;;7.20;;
23266;SDS011;11802;53.160;8.214;2023-05-19T04:51:17;11.47;;;6.20;;
23266;SDS011;11802;53.160;8.214;2023-05-19T04:53:43;11.03;;;6.27;;
23266;SDS011;11802;53.160;8.214;2023-05-19T04:56:09;14.93;;;6.73;;
23266;SDS011;11802;53.160;8.214;2023-05-19T04:58:38;9.70;;;6.30;;
23266;SDS011;11802;53.160;8.214;2023-05-19T05:01:09;11.90;;;5.95;;
23266;SDS011;11802;53.160;8.214;2023-05-19T05:03:37;8.02;;;5.53;;
23266;SDS011;11802;53.160;8.214;2023-05-19T05:06:03;10.57;;;5.72;;
23266;SDS011;11802;53.160;8.214;2023-05-19T05:08:28;9.98;;;5.93;;
23266;SDS011;11802;53.160;8.214;2023-05-19T05:10:54;10.57;;;5.88;;
23266;SDS011;11802;53.160;8.214;2023-05-19T05:13:20;9.77;;;5.68;;
23266;SDS011;11802;53.160;8.214;2023-05-19T05:15:47;10.10;;;5.35;;
23266;SDS011;11802;53.160;8.214;2023-05-19T05:18:13;11.18;;;5.60;;
23266;SDS011;11802;53.160;8.214;2023-05-19T05:20:42;10.38;;;5.88;;
23266;SDS011;11802;53.160;8.214;2023-05-19T05:23:09;11.48;;;6.28;;
23266;SDS011;11802;53.160;8.214;2023-05-19T05:25:38;13.85;;;6.20;;
23266;SDS011;11802;53.160;8.214;2023-05-19T05:28:04;13.93;;;5.70;;
23266;SDS011;11802;53.160;8.214;2023-05-19T05:30:30;9.77;;;5.78;;
23266;SDS011;11802;53.160;8.214;2023-05-19T05:32:57;8.98;;;5.70;;
23266;SDS011;11802;53.160;8.214;2023-05-19T05:35:22;15.00;;;5.85;;
23266;SDS011;11802;53.160;8.214;2023-05-19T05:37:48;10.38;;;5.10;;
23266;SDS011;11802;53.160;8.214;2023-05-19T05:40:14;8.55;;;5.20;;
23266;SDS011;11802;53.160;8.214;2023-05-19T05:42:39;10.82;;;4.97;;
23266;SDS011;11802;53.160;8.214;2023-05-19T05:45:05;12.30;;;4.72;;
23266;SDS011;11802;53.160;8.214;2023-05-19T05:47:31;9.40;;;4.75;;
23266;SDS011;11802;53.160;8.214;2023-05-19T05:49:57;8.80;;;4.30;;
23266;SDS011;11802;53.160;8.214;2023-05-19T05:52:24;11.38;;;4.57;;
23266;SDS011;11802;53.160;8.214;2023-05-19T05:54:53;9.18;;;3.90;;
23266;SDS011;11802;53.160;8.214;2023-05-19T05:57:19;12.38;;;5.00;;
23266;SDS011;11802;53.160;8.214;2023-05-19T05:59:45;9.88;;;4.35;;
23266;SDS011;11802;53.160;8.214;2023-05-19T06:02:11;6.78;;;3.58;;
23266;SDS011;11802;53.160;8.214;2023-05-19T06:04:36;8.65;;;3.88;;
23266;SDS011;11802;53.160;8.214;2023-05-19T06:07:02;13.07;;;4.38;;
23266;SDS011;11802;53.160;8.214;2023-05-19T06:09:27;7.25;;;4.45;;
23266;SDS011;11802;53.160;8.214;2023-05-19T06:11:54;7.95;;;4.05;;
23266;SDS011;11802;53.160;8.214;2023-05-19T06:14:20;9.07;;;3.92;;
23266;SDS011;11802;53.160;8.214;2023-05-19T06:16:45;8.65;;;4.03;;
23266;SDS011;11802;53.160;8.214;2023-05-19T06:19:12;8.93;;;4.30;;
23266;SDS011;11802;53.160;8.214;2023-05-19T06:21:38;10.18;;;4.28;;
23266;SDS011;11802;53.160;8.214;2023-05-19T06:24:03;8.25;;;3.97;;
23266;SDS011;11802;53.160;8.214;2023-05-19T06:26:29;12.18;;;4.70;;
23266;SDS011;11802;53.160;8.214;2023-05-19T06:28:55;8.10;;;4.32;;
23266;SDS011;11802;53.160;8.214;2023-05-19T06:31:20;6.85;;;3.53;;
23266;SDS011;11802;53.160;8.214;2023-05-19T06:33:46;7.95;;;4.25;;
23266;SDS011;11802;53.160;8.214;2023-05-19T06:36:12;10.60;;;4.50;;
23266;SDS011;11802;53.160;8.214;2023-05-19T06:38:37;10.52;;;4.80;;
23266;SDS011;11802;53.160;8.214;2023-05-19T06:41:03;10.23;;;4.63;;
23266;SDS011;11802;53.160;8.214;2023-05-19T06:43:28;12.43;;;4.82;;
23266;SDS011;11802;53.160;8.214;2023-05-19T06:45:54;11.00;;;4.60;;
23266;SDS011;11802;53.160;8.214;2023-05-19T06:48:20;8.98;;;5.13;;
23266;SDS011;11802;53.160;8.214;2023-05-19T06:50:45;7.65;;;4.15;;
23266;SDS011;11802;53.160;8.214;2023-05-19T06:53:11;10.02;;;4.20;;
23266;SDS011;11802;53.160;8.214;2023-05-19T06:55:36;12.23;;;4.40;;
23266;SDS011;11802;53.160;8.214;2023-05-19T06:58:02;8.00;;;3.95;;
23266;SDS011;11802;53.160;8.214;2023-05-19T07:00:27;9.55;;;4.13;;
23266;SDS011;11802;53.160;8.214;2023-05-19T07:02:53;7.45;;;4.00;;
23266;SDS011;11802;53.160;8.214;2023-05-19T07:05:18;9.18;;;3.80;;
23266;SDS011;11802;53.160;8.214;2023-05-19T07:07:44;8.43;;;4.10;;
23266;SDS011;11802;53.160;8.214;2023-05-19T07:10:10;8.70;;;3.80;;
23266;SDS011;11802;53.160;8.214;2023-05-19T07:12:35;13.00;;;4.40;;
23266;SDS011;11802;53.160;8.214;2023-05-19T07:15:01;8.60;;;3.90;;
23266;SDS011;11802;53.160;8.214;2023-05-19T07:17:27;10.82;;;4.07;;
23266;SDS011;11802;53.160;8.214;2023-05-19T07:19:52;10.98;;;3.95;;
23266;SDS011;11802;53.160;8.214;2023-05-19T07:22:18;7.40;;;3.40;;
23266;SDS011;11802;53.160;8.214;2023-05-19T07:24:43;11.35;;;3.97;;
23266;SDS011;11802;53.160;8.214;2023-05-19T07:27:09;8.55;;;3.95;;
23266;SDS011;11802;53.160;8.214;2023-05-19T07:29:35;7.97;;;3.30;;
23266;SDS011;11802;53.160;8.214;2023-05-19T07:32:00;8.35;;;3.53;;
23266;SDS011;11802;53.160;8.214;2023-05-19T07:34:26;8.73;;;3.65;;
23266;SDS011;11802;53.160;8.214;2023-05-19T07:36:51;9.10;;;3.30;;
23266;SDS011;11802;53.160;8.214;2023-05-19T07:39:17;9.32;;;3.50;;
23266;SDS011;11802;53.160;8.214;2023-05-19T07:41:43;7.72;;;3.42;;
23266;SDS011;11802;53.160;8.214;2023-05-19T07:44:08;9.60;;;3.38;;
23266;SDS011;11802;53.160;8.214;2023-05-19T07:46:35;7.38;;;2.78;;
23266;SDS011;11802;53.160;8.214;2023-05-19T07:49:01;10.48;;;3.33;;
23266;SDS011;11802;53.160;8.214;2023-05-19T07:51:27;8.77;;;3.00;;
23266;SDS011;11802;53.160;8.214;2023-05-19T07:53:53;9.05;;;2.80;;
23266;SDS011;11802;53.160;8.214;2023-05-19T07:56:18;8.93;;;2.90;;
23266;SDS011;11802;53.160;8.214;2023-05-19T07:58:44;9.68;;;3.70;;
23266;SDS011;11802;53.160;8.214;2023-05-19T08:01:09;8.98;;;3.85;;
23266;SDS011;11802;53.160;8.214;2023-05-19T08:03:35;9.90;;;3.75;;
23266;SDS011;11802;53.160;8.214;2023-05-19T08:06:00;12.68;;;3.80;;
23266;SDS011;11802;53.160;8.214;2023-05-19T08:08:26;11.05;;;3.83;;
23266;SDS011;11802;53.160;8.214;2023-05-19T08:10:52;7.28;;;3.25;;
23266;SDS011;11802;53.160;8.214;2023-05-19T08:13:17;7.40;;;3.20;;
23266;SDS011;11802;53.160;8.214;2023-05-19T08:15:43;8.85;;;3.13;;
23266;SDS011;11802;53.160;8.214;2023-05-19T08:18:10;11.25;;;4.28;;
23266;SDS011;11802;53.160;8.214;2023-05-19T08:20:36;9.52;;;3.55;;
23266;SDS011;11802;53.160;8.214;2023-05-19T08:23:01;8.27;;;3.40;;
23266;SDS011;11802;53.160;8.214;2023-05-19T08:25:27;8.57;;;3.60;;
23266;SDS011;11802;53.160;8.214;2023-05-19T08:27:52;7.82;;;3.78;;
23266;SDS011;11802;53.160;8.214;2023-05-19T08:30:18;7.72;;;3.65;;
23266;SDS011;11802;53.160;8.214;2023-05-19T08:32:43;13.25;;;3.60;;
23266;SDS011;11802;53.160;8.214;2023-05-19T08:35:09;9.60;;;3.80;;
23266;SDS011;11802;53.160;8.214;2023-05-19T08:37:35;9.18;;;3.58;;
23266;SDS011;11802;53.160;8.214;2023-05-19T08:40:02;9.02;;;3.83;;
23266;SDS011;11802;53.160;8.214;2023-05-19T08:42:29;7.28;;;3.42;;
23266;SDS011;11802;53.160;8.214;2023-05-19T08:44:56;7.75;;;3.55;;
23266;SDS011;11802;53.160;8.214;2023-05-19T08:47:22;7.57;;;3.33;;
23266;SDS011;11802;53.160;8.214;2023-05-19T08:49:50;8.55;;;3.22;;
23266;SDS011;11802;53.160;8.214;2023-05-19T08:52:24;8.98;;;3.13;;
23266;SDS011;11802;53.160;8.214;2023-05-19T08:55:13;8.75;;;2.97;;
23266;SDS011;11802;53.160;8.214;2023-05-19T08:57:49;9.70;;;3.35;;
23266;SDS011;11802;53.160;8.214;2023-05-19T09:00:16;10.30;;;3.35;;
23266;SDS011;11802;53.160;8.214;2023-05-19T09:02:43;9.07;;;3.38;;
23266;SDS011;11802;53.160;8.214;2023-05-19T09:05:12;6.25;;;3.10;;
23266;SDS011;11802;53.160;8.214;2023-05-19T09:07:43;7.95;;;3.60;;
23266;SDS011;11802;53.160;8.214;2023-05-19T09:10:09;11.93;;;3.75;;
23266;SDS011;11802;53.160;8.214;2023-05-19T09:12:39;9.50;;;3.28;;
23266;SDS011;11802;53.160;8.214;2023-05-19T09:15:06;10.88;;;4.00;;
23266;SDS011;11802;53.160;8.214;2023-05-19T09:17:33;7.22;;;3.83;;
23266;SDS011;11802;53.160;8.214;2023-05-19T09:20:04;8.13;;;3.88;;
23266;SDS011;11802;53.160;8.214;2023-05-19T09:22:39;9.77;;;4.03;;
23266;SDS011;11802;53.160;8.214;2023-05-19T09:25:05;8.80;;;3.40;;
23266;SDS011;11802;53.160;8.214;2023-05-19T09:27:43;9.13;;;4.13;;
23266;SDS011;11802;53.160;8.214;2023-05-19T09:30:14;9.57;;;3.67;;
23266;SDS011;11802;53.160;8.214;2023-05-19T09:32:40;10.35;;;3.80;;
23266;SDS011;11802;53.160;8.214;2023-05-19T09:35:06;9.30;;;3.50;;
23266;SDS011;11802;53.160;8.214;2023-05-19T09:37:31;7.18;;;3.25;;
23266;SDS011;11802;53.160;8.214;2023-05-19T09:39:57;12.10;;;3.30;;
23266;SDS011;11802;53.160;8.214;2023-05-19T09:42:24;11.75;;;3.47;;
23266;SDS011;11802;53.160;8.214;2023-05-19T09:45:00;7.65;;;3.00;;
23266;SDS011;11802;53.160;8.214;2023-05-19T09:47:26;9.65;;;3.30;;
23266;SDS011;11802;53.160;8.214;2023-05-19T09:49:56;10.15;;;3.20;;
23266;SDS011;11802;53.160;8.214;2023-05-19T09:52:22;8.93;;;3.00;;
23266;SDS011;11802;53.160;8.214;2023-05-19T09:54:48;7.85;;;3.08;;
23266;SDS011;11802;53.160;8.214;2023-05-19T09:57:15;9.38;;;3.38;;
23266;SDS011;11802;53.160;8.214;2023-05-19T09:59:41;7.55;;;2.90;;
23266;SDS011;11802;53.160;8.214;2023-05-19T10:02:12;8.95;;;3.25;;
23266;SDS011;11802;53.160;8.214;2023-05-19T10:04:41;8.88;;;4.18;;
23266;SDS011;11802;53.160;8.214;2023-05-19T10:07:07;10.68;;;3.22;;
23266;SDS011;11802;53.160;8.214;2023-05-19T10:09:36;8.88;;;3.30;;
23266;SDS011;11802;53.160;8.214;2023-05-19T10:12:03;6.68;;;3.13;;
23266;SDS011;11802;53.160;8.214;2023-05-19T10:14:30;7.60;;;3.05;;
23266;SDS011;11802;53.160;8.214;2023-05-19T10:16:56;7.70;;;2.92;;
23266;SDS011;11802;53.160;8.214;2023-05-19T10:19:24;7.03;;;3.10;;
23266;SDS011;11802;53.160;8.214;2023-05-19T10:21:50;7.82;;;2.55;;
23266;SDS011;11802;53.160;8.214;2023-05-19T10:24:17;7.13;;;2.90;;
23266;SDS011;11802;53.160;8.214;2023-05-19T10:26:44;6.25;;;2.83;;
23266;SDS011;11802;53.160;8.214;2023-05-19T10:29:14;8.57;;;2.80;;
23266;SDS011;11802;53.160;8.214;2023-05-19T10:31:44;9.57;;;2.92;;
23266;SDS011;11802;53.160;8.214;2023-05-19T10:36:49;7.78;;;2.58;;
23266;SDS011;11802;53.160;8.214;2023-05-19T10:39:28;6.55;;;2.58;;
23266;SDS011;11802;53.160;8.214;2023-05-19T10:42:03;6.72;;;2.30;;
23266;SDS011;11802;53.160;8.214;2023-05-19T10:44:55;5.68;;;2.00;;
23266;SDS011;11802;53.160;8.214;2023-05-19T10:47:28;5.35;;;1.73;;
23266;SDS011;11802;53.160;8.214;2023-05-19T10:49:54;5.88;;;1.95;;
23266;SDS011;11802;53.160;8.214;2023-05-19T10:52:20;8.32;;;2.08;;
23266;SDS011;11802;53.160;8.214;2023-05-19T10:54:49;5.95;;;2.75;;
23266;SDS011;11802;53.160;8.214;2023-05-19T10:57:15;5.43;;;1.92;;
23266;SDS011;11802;53.160;8.214;2023-05-19T10:59:41;6.78;;;2.47;;
23266;SDS011;11802;53.160;8.214;2023-05-19T11:02:10;9.18;;;2.20;;
23266;SDS011;11802;53.160;8.214;2023-05-19T11:05:07;6.65;;;2.20;;
23266;SDS011;11802;53.160;8.214;2023-05-19T11:07:34;6.55;;;2.55;;
23266;SDS011;11802;53.160;8.214;2023-05-19T11:10:02;4.30;;;1.83;;
23266;SDS011;11802;53.160;8.214;2023-05-19T11:12:30;5.93;;;2.30;;
23266;SDS011;11802;53.160;8.214;2023-05-19T11:15:06;6.75;;;2.38;;
23266;SDS011;11802;53.160;8.214;2023-05-19T11:17:34;7.00;;;2.00;;
23266;SDS011;11802;53.160;8.214;2023-05-19T11:20:00;5.72;;;1.55;;
23266;SDS011;11802;53.160;8.214;2023-05-19T11:22:26;7.10;;;1.95;;
23266;SDS011;11802;53.160;8.214;2023-05-19T11:24:55;5.38;;;1.80;;
23266;SDS011;11802;53.160;8.214;2023-05-19T11:27:25;5.97;;;2.10;;
23266;SDS011;11802;53.160;8.214;2023-05-19T11:29:52;7.40;;;1.98;;
23266;SDS011;11802;53.160;8.214;2023-05-19T11:32:35;6.03;;;2.10;;
23266;SDS011;11802;53.160;8.214;2023-05-19T11:35:06;7.80;;;2.20;;
23266;SDS011;11802;53.160;8.214;2023-05-19T11:37:34;7.30;;;1.80;;
23266;SDS011;11802;53.160;8.214;2023-05-19T11:40:01;3.83;;;1.80;;
23266;SDS011;11802;53.160;8.214;2023-05-19T11:42:31;4.53;;;1.70;;
23266;SDS011;11802;53.160;8.214;2023-05-19T11:44:58;6.20;;;1.85;;
23266;SDS011;11802;53.160;8.214;2023-05-19T11:47:24;6.10;;;2.25;;
23266;SDS011;11802;53.160;8.214;2023-05-19T11:49:51;6.18;;;1.60;;
23266;SDS011;11802;53.160;8.214;2023-05-19T11:52:22;4.70;;;1.95;;
23266;SDS011;11802;53.160;8.214;2023-05-19T11:54:48;8.25;;;1.98;;
23266;SDS011;11802;53.160;8.214;2023-05-19T11:57:14;6.70;;;1.60;;
23266;SDS011;11802;53.160;8.214;2023-05-19T11:59:40;3.88;;;1.70;;
23266;SDS011;11802;53.160;8.214;2023-05-19T12:02:19;11.23;;;1.88;;
23266;SDS011;11802;53.160;8.214;2023-05-19T12:04:49;5.63;;;1.63;;
23266;SDS011;11802;53.160;8.214;2023-05-19T12:07:18;5.30;;;1.60;;
23266;SDS011;11802;53.160;8.214;2023-05-19T12:09:47;6.53;;;1.77;;
23266;SDS011;11802;53.160;8.214;2023-05-19T12:12:14;6.00;;;1.75;;
23266;SDS011;11802;53.160;8.214;2023-05-19T12:14:41;6.82;;;1.80;;
23266;SDS011;11802;53.160;8.214;2023-05-19T12:17:13;5.20;;;1.63;;
23266;SDS011;11802;53.160;8.214;2023-05-19T12:19:41;6.25;;;1.92;;
23266;SDS011;11802;53.160;8.214;2023-05-19T12:22:08;4.00;;;1.50;;
23266;SDS011;11802;53.160;8.214;2023-05-19T12:24:34;6.13;;;1.98;;
23266;SDS011;11802;53.160;8.214;2023-05-19T12:27:11;6.43;;;1.83;;
23266;SDS011;11802;53.160;8.214;2023-05-19T12:29:40;9.85;;;2.25;;
23266;SDS011;11802;53.160;8.214;2023-05-19T12:32:06;4.72;;;1.90;;
23266;SDS011;11802;53.160;8.214;2023-05-19T12:34:36;6.28;;;1.70;;
23266;SDS011;11802;53.160;8.214;2023-05-19T12:37:03;7.75;;;1.75;;
23266;SDS011;11802;53.160;8.214;2023-05-19T12:39:29;6.50;;;1.88;;
23266;SDS011;11802;53.160;8.214;2023-05-19T12:42:07;9.38;;;1.80;;
23266;SDS011;11802;53.160;8.214;2023-05-19T12:44:41;5.65;;;1.42;;
23266;SDS011;11802;53.160;8.214;2023-05-19T12:47:10;4.95;;;1.60;;
23266;SDS011;11802;53.160;8.214;2023-05-19T12:49:36;5.15;;;1.77;;
23266;SDS011;11802;53.160;8.214;2023-05-19T12:52:17;4.75;;;1.55;;
23266;SDS011;11802;53.160;8.214;2023-05-19T12:54:43;5.45;;;1.90;;
23266;SDS011;11802;53.160;8.214;2023-05-19T12:57:10;7.60;;;2.03;;
23266;SDS011;11802;53.160;8.214;2023-05-19T12:59:35;5.28;;;1.50;;
23266;SDS011;11802;53.160;8.214;2023-05-19T13:02:01;4.28;;;1.70;;
23266;SDS011;11802;53.160;8.214;2023-05-19T13:04:26;6.50;;;1.85;;
23266;SDS011;11802;53.160;8.214;2023-05-19T13:06:52;5.28;;;1.67;;
23266;SDS011;11802;53.160;8.214;2023-05-19T13:09:18;3.58;;;1.60;;
23266;SDS011;11802;53.160;8.214;2023-05-19T13:11:45;5.00;;;1.80;;
23266;SDS011;11802;53.160;8.214;2023-05-19T13:14:16;3.78;;;1.70;;
23266;SDS011;11802;53.160;8.214;2023-05-19T13:16:43;7.35;;;1.60;;
23266;SDS011;11802;53.160;8.214;2023-05-19T13:19:10;6.35;;;1.60;;
23266;SDS011;11802;53.160;8.214;2023-05-19T13:21:40;4.07;;;1.58;;
23266;SDS011;11802;53.160;8.214;2023-05-19T13:24:05;9.48;;;2.10;;
23266;SDS011;11802;53.160;8.214;2023-05-19T13:26:31;4.65;;;1.65;;
23266;SDS011;11802;53.160;8.214;2023-05-19T13:28:57;7.13;;;1.70;;
23266;SDS011;11802;53.160;8.214;2023-05-19T13:31:22;5.93;;;2.05;;
23266;SDS011;11802;53.160;8.214;2023-05-19T13:33:48;6.60;;;1.85;;
23266;SDS011;11802;53.160;8.214;2023-05-19T13:36:13;9.18;;;1.83;;
23266;SDS011;11802;53.160;8.214;2023-05-19T13:38:39;5.03;;;1.73;;
23266;SDS011;11802;53.160;8.214;2023-05-19T13:41:05;5.63;;;1.83;;
23266;SDS011;11802;53.160;8.214;2023-05-19T13:43:31;5.80;;;1.70;;
23266;SDS011;11802;53.160;8.214;2023-05-19T13:45:57;5.03;;;1.60;;
23266;SDS011;11802;53.160;8.214;2023-05-19T13:48:22;4.22;;;1.60;;
23266;SDS011;11802;53.160;8.214;2023-05-19T13:50:48;5.10;;;1.80;;
23266;SDS011;11802;53.160;8.214;2023-05-19T13:53:16;10.00;;;2.05;;
23266;SDS011;11802;53.160;8.214;2023-05-19T13:55:41;4.32;;;1.65;;
23266;SDS011;11802;53.160;8.214;2023-05-19T13:58:07;5.10;;;1.88;;
23266;SDS011;11802;53.160;8.214;2023-05-19T14:00:34;3.83;;;1.70;;
23266;SDS011;11802;53.160;8.214;2023-05-19T14:03:00;5.38;;;1.73;;
23266;SDS011;11802;53.160;8.214;2023-05-19T14:05:26;4.97;;;1.35;;
23266;SDS011;11802;53.160;8.214;2023-05-19T14:07:52;6.55;;;1.55;;
23266;SDS011;11802;53.160;8.214;2023-05-19T14:10:19;4.75;;;1.88;;
23266;SDS011;11802;53.160;8.214;2023-05-19T14:12:44;7.35;;;1.83;;
23266;SDS011;11802;53.160;8.214;2023-05-19T14:15:10;4.63;;;1.70;;
23266;SDS011;11802;53.160;8.214;2023-05-19T14:17:36;4.43;;;1.80;;
23266;SDS011;11802;53.160;8.214;2023-05-19T14:20:01;5.60;;;1.73;;
23266;SDS011;11802;53.160;8.214;2023-05-19T14:22:28;6.88;;;1.60;;
23266;SDS011;11802;53.160;8.214;2023-05-19T14:24:53;7.95;;;1.88;;
23266;SDS011;11802;53.160;8.214;2023-05-19T14:27:19;4.47;;;1.58;;
23266;SDS011;11802;53.160;8.214;2023-05-19T14:29:44;7.13;;;1.77;;
23266;SDS011;11802;53.160;8.214;2023-05-19T14:32:10;4.53;;;1.38;;
23266;SDS011;11802;53.160;8.214;2023-05-19T14:34:35;4.90;;;1.65;;
23266;SDS011;11802;53.160;8.214;2023-05-19T14:37:01;6.47;;;1.90;;
23266;SDS011;11802;53.160;8.214;2023-05-19T14:39:28;6.80;;;2.28;;
23266;SDS011;11802;53.160;8.214;2023-05-19T14:41:54;5.80;;;1.52;;
23266;SDS011;11802;53.160;8.214;2023-05-19T14:44:20;5.88;;;1.52;;
23266;SDS011;11802;53.160;8.214;2023-05-19T14:46:45;3.70;;;1.67;;
23266;SDS011;11802;53.160;8.214;2023-05-19T14:49:11;5.13;;;1.73;;
23266;SDS011;11802;53.160;8.214;2023-05-19T14:51:36;5.07;;;1.75;;
23266;SDS011;11802;53.160;8.214;2023-05-19T14:54:02;7.68;;;2.17;;
23266;SDS011;11802;53.160;8.214;2023-05-19T14:56:27;5.07;;;1.67;;
23266;SDS011;11802;53.160;8.214;2023-05-19T14:58:53;6.13;;;1.90;;
23266;SDS011;11802;53.160;8.214;2023-05-19T15:01:18;5.32;;;1.75;;
23266;SDS011;11802;53.160;8.214;2023-05-19T15:03:44;4.65;;;1.80;;